createdAt,value
2018-01-26T00:01:11.625Z,6.40
2018-01-26T00:03:39.202Z,6.50
2018-01-26T00:06:06.678Z,6.50
2018-01-26T00:08:34.148Z,6.50
2018-01-26T00:11:01.653Z,6.50
2018-01-26T00:13:29.143Z,6.60
2018-01-26T00:15:58.161Z,6.50
2018-01-26T00:18:25.740Z,6.50
2018-01-26T00:20:53.216Z,6.60
2018-01-26T00:23:20.717Z,6.60
2018-01-26T00:25:48.294Z,6.60
2018-01-26T00:28:15.763Z,6.60
2018-01-26T00:30:43.994Z,6.70
2018-01-26T00:33:12.982Z,6.60
2018-01-26T00:35:40.447Z,6.60
2018-01-26T00:38:07.956Z,6.60
2018-01-26T00:40:35.442Z,6.60
2018-01-26T00:43:02.969Z,6.60
2018-01-26T00:45:31.203Z,6.60
2018-01-26T00:47:58.667Z,6.60
2018-01-26T00:50:26.198Z,6.60
2018-01-26T00:52:53.673Z,6.60
2018-01-26T00:55:21.143Z,6.60
2018-01-26T00:57:48.609Z,6.60
2018-01-26T01:00:16.074Z,6.60
2018-01-26T01:02:43.821Z,6.60
2018-01-26T01:05:11.417Z,6.50
2018-01-26T01:07:38.899Z,6.60
2018-01-26T01:10:06.368Z,6.50
2018-01-26T01:12:33.844Z,6.50
2018-01-26T01:15:01.338Z,6.50
2018-01-26T01:17:28.908Z,6.40
2018-01-26T01:19:56.380Z,6.50
2018-01-26T01:22:23.886Z,6.50
2018-01-26T01:24:51.354Z,6.50
2018-01-26T01:27:18.816Z,6.50
2018-01-26T01:29:46.282Z,6.50
2018-01-26T01:32:14.487Z,6.50
2018-01-26T01:34:42.220Z,6.40
2018-01-26T01:37:09.689Z,6.40
2018-01-26T01:39:37.182Z,6.40
2018-01-26T01:42:04.670Z,6.40
2018-01-26T01:44:32.140Z,6.40
2018-01-26T01:46:59.600Z,6.40
2018-01-26T01:49:27.069Z,6.40
2018-01-26T01:51:54.538Z,6.40
2018-01-26T01:54:22.077Z,6.40
2018-01-26T01:56:49.540Z,6.40
2018-01-26T01:59:17.016Z,6.40
2018-01-26T02:01:44.495Z,6.40
2018-01-26T02:04:12.281Z,6.30
2018-01-26T02:06:39.820Z,6.30
2018-01-26T02:09:07.292Z,6.30
2018-01-26T02:11:34.772Z,6.30
2018-01-26T02:14:02.240Z,6.20
2018-01-26T02:16:29.711Z,6.20
2018-01-26T02:18:57.181Z,6.20
2018-01-26T02:21:24.657Z,6.10
2018-01-26T02:24:09.812Z,6.10
2018-01-26T02:26:37.272Z,6.00
2018-01-26T02:29:04.740Z,6.00
2018-01-26T02:31:32.217Z,6.00
2018-01-26T02:33:59.695Z,6.00
2018-01-26T02:36:27.164Z,6.00
2018-01-26T02:38:55.417Z,5.90
2018-01-26T02:41:22.887Z,5.90
2018-01-26T02:43:50.366Z,5.90
2018-01-26T02:46:17.837Z,5.90
2018-01-26T02:48:45.324Z,5.90
2018-01-26T02:51:13.621Z,5.80
2018-01-26T02:53:41.084Z,5.80
2018-01-26T02:56:09.354Z,5.70
2018-01-26T02:58:37.649Z,5.60
2018-01-26T03:01:05.115Z,5.60
2018-01-26T03:03:32.584Z,5.70
2018-01-26T03:06:00.057Z,5.70
2018-01-26T03:08:27.524Z,5.70
2018-01-26T03:10:55.773Z,5.70
2018-01-26T03:13:23.261Z,5.70
2018-01-26T03:15:50.761Z,5.70
2018-01-26T03:18:18.225Z,5.70
2018-01-26T03:20:45.708Z,5.70
2018-01-26T03:23:13.205Z,5.80
2018-01-26T03:25:40.774Z,5.80
2018-01-26T03:28:08.252Z,5.80
2018-01-26T03:30:35.742Z,5.70
2018-01-26T03:33:03.209Z,5.70
2018-01-26T03:35:30.687Z,5.70
2018-01-26T03:37:58.150Z,5.60
2018-01-26T03:40:25.622Z,5.60
2018-01-26T03:42:53.860Z,5.60
2018-01-26T03:45:21.340Z,5.60
2018-01-26T03:47:48.819Z,5.60
2018-01-26T03:50:16.333Z,5.60
2018-01-26T03:52:44.660Z,5.60
2018-01-26T03:55:13.452Z,5.90
2018-01-26T03:57:41.031Z,5.80
2018-01-26T04:00:08.496Z,5.90
2018-01-26T04:02:35.962Z,5.90
2018-01-26T04:05:03.429Z,5.90
2018-01-26T04:07:30.904Z,5.90
2018-01-26T04:09:59.135Z,5.80
2018-01-26T04:12:26.607Z,5.80
2018-01-26T04:14:54.122Z,5.70
2018-01-26T04:17:21.603Z,5.70
2018-01-26T04:19:49.076Z,5.70
2018-01-26T04:22:16.548Z,5.60
2018-01-26T04:24:44.819Z,5.60
2018-01-26T04:27:13.077Z,5.60
2018-01-26T04:29:40.535Z,5.60
2018-01-26T04:32:08.022Z,5.60
2018-01-26T04:34:35.501Z,5.60
2018-01-26T04:37:03.009Z,5.50
2018-01-26T04:39:30.475Z,5.50
2018-01-26T04:41:57.952Z,5.50
2018-01-26T04:44:25.449Z,5.50
2018-01-26T04:46:53.037Z,5.40
2018-01-26T04:49:20.513Z,5.30
2018-01-26T04:51:47.996Z,5.20
2018-01-26T04:54:15.492Z,5.20
2018-01-26T04:56:42.950Z,5.20
2018-01-26T04:59:10.453Z,5.20
2018-01-26T05:01:37.933Z,5.20
2018-01-26T05:04:06.248Z,5.10
2018-01-26T05:06:33.828Z,5.10
2018-01-26T05:09:01.293Z,5.10
2018-01-26T05:11:28.759Z,5.10
2018-01-26T05:13:56.230Z,5.10
2018-01-26T05:16:23.703Z,5.00
2018-01-26T05:18:51.956Z,5.00
2018-01-26T05:21:19.429Z,4.90
2018-01-26T05:23:46.921Z,4.90
2018-01-26T05:26:14.503Z,4.90
2018-01-26T05:28:42.090Z,5.00
2018-01-26T05:31:09.565Z,5.00
2018-01-26T05:33:37.055Z,4.90
2018-01-26T05:36:04.529Z,4.90
2018-01-26T05:38:32.001Z,4.90
2018-01-26T05:40:59.651Z,4.90
2018-01-26T05:43:27.878Z,4.90
2018-01-26T05:45:55.405Z,4.90
2018-01-26T05:48:23.126Z,4.90
2018-01-26T05:50:51.385Z,4.90
2018-01-26T05:53:18.908Z,4.90
2018-01-26T05:55:47.140Z,4.80
2018-01-26T05:58:14.696Z,4.80
2018-01-26T06:00:43.526Z,4.70
2018-01-26T06:03:11.015Z,4.70
2018-01-26T06:05:38.756Z,4.70
2018-01-26T06:08:06.346Z,4.60
2018-01-26T06:10:33.933Z,4.60
2018-01-26T06:13:01.430Z,4.60
2018-01-26T06:15:30.481Z,4.60
2018-01-26T06:17:57.978Z,4.60
2018-01-26T06:20:25.536Z,4.70
2018-01-26T06:22:53.777Z,4.70
2018-01-26T06:25:21.250Z,4.60
2018-01-26T06:27:48.720Z,4.70
2018-01-26T06:30:16.186Z,4.70
2018-01-26T06:32:44.030Z,4.70
2018-01-26T06:35:11.540Z,4.70
2018-01-26T06:37:39.002Z,4.70
2018-01-26T06:40:06.482Z,4.70
2018-01-26T06:42:33.958Z,4.70
2018-01-26T06:45:01.436Z,4.80
2018-01-26T06:47:28.902Z,4.80
2018-01-26T06:49:56.485Z,4.80
2018-01-26T06:52:23.982Z,4.80
2018-01-26T06:54:52.196Z,4.80
2018-01-26T06:57:19.679Z,4.80
2018-01-26T06:59:47.255Z,4.80
2018-01-26T07:02:14.737Z,4.70
2018-01-26T07:04:42.270Z,4.70
2018-01-26T07:07:10.498Z,4.80
2018-01-26T07:09:37.999Z,4.70
2018-01-26T07:12:05.481Z,4.70
2018-01-26T07:14:32.954Z,4.80
2018-01-26T07:17:00.436Z,4.80
2018-01-26T07:19:27.918Z,4.80
2018-01-26T07:21:55.400Z,4.80
2018-01-26T07:24:22.914Z,4.90
2018-01-26T07:26:50.438Z,4.90
2018-01-26T07:29:18.666Z,5.00
2018-01-26T07:31:46.178Z,5.00
2018-01-26T07:34:14.729Z,5.00
2018-01-26T07:36:42.482Z,5.00
2018-01-26T07:39:10.167Z,5.00
2018-01-26T07:41:37.647Z,5.10
2018-01-26T07:44:05.236Z,5.10
2018-01-26T07:46:32.734Z,5.10
2018-01-26T07:49:00.303Z,5.10
2018-01-26T07:51:27.938Z,5.10
2018-01-26T07:53:55.414Z,5.10
2018-01-26T07:56:23.658Z,5.20
2018-01-26T07:58:51.180Z,5.20
2018-01-26T08:01:19.456Z,5.30
2018-01-26T08:03:46.967Z,5.30
2018-01-26T08:06:14.443Z,5.50
2018-01-26T08:08:42.994Z,5.50
2018-01-26T08:11:10.490Z,5.50
2018-01-26T08:13:37.987Z,5.50
2018-01-26T08:16:05.623Z,5.60
2018-01-26T08:18:33.107Z,5.60
2018-01-26T08:21:01.385Z,5.60
2018-01-26T08:23:28.873Z,5.60
2018-01-26T08:25:56.362Z,5.60
2018-01-26T08:28:24.657Z,5.80
2018-01-26T08:30:52.139Z,5.80
2018-01-26T08:33:19.623Z,5.90
2018-01-26T08:35:47.120Z,5.90
2018-01-26T08:38:15.371Z,6.20
2018-01-26T08:40:43.425Z,6.20
2018-01-26T08:43:10.961Z,6.40
2018-01-26T08:45:38.458Z,6.50
2018-01-26T08:48:06.057Z,6.60
2018-01-26T08:50:33.555Z,6.60
2018-01-26T08:53:04.337Z,6.80
2018-01-26T08:55:32.621Z,6.80
2018-01-26T08:58:00.184Z,6.60
2018-01-26T09:00:27.670Z,6.40
2018-01-26T09:02:55.150Z,6.20
2018-01-26T09:05:22.608Z,6.10
2018-01-26T09:07:50.095Z,6.30
2018-01-26T09:10:17.559Z,6.30
2018-01-26T09:12:45.042Z,6.30
2018-01-26T09:15:12.509Z,6.40
2018-01-26T09:17:40.757Z,6.40
2018-01-26T09:20:08.218Z,6.40
2018-01-26T09:22:35.678Z,6.30
2018-01-26T09:25:03.137Z,6.40
2018-01-26T09:27:31.397Z,6.50
2018-01-26T09:29:58.865Z,6.50
2018-01-26T09:32:26.325Z,6.70
2018-01-26T09:34:53.780Z,6.60
2018-01-26T09:37:22.041Z,6.70
2018-01-26T09:39:49.520Z,6.70
2018-01-26T09:42:16.981Z,6.90
2018-01-26T09:44:44.438Z,7.20
2018-01-26T09:47:12.667Z,7.50
2018-01-26T09:49:40.150Z,7.40
2018-01-26T09:52:07.610Z,7.70
2018-01-26T09:54:35.131Z,8.60
2018-01-26T09:57:03.429Z,10.20
2018-01-26T09:59:30.915Z,11.90
2018-01-26T10:01:58.369Z,13.00
2018-01-26T10:04:25.887Z,13.30
2018-01-26T10:06:53.346Z,13.10
2018-01-26T10:09:20.804Z,12.80
2018-01-26T10:11:48.266Z,12.40
2018-01-26T10:14:16.518Z,10.60
2018-01-26T10:16:43.987Z,10.60
2018-01-26T10:19:11.481Z,10.20
2018-01-26T10:21:38.947Z,9.90
2018-01-26T10:24:06.446Z,9.70
2018-01-26T10:26:33.921Z,9.40
2018-01-26T10:29:01.392Z,9.30
2018-01-26T10:31:28.888Z,9.00
2018-01-26T10:33:56.383Z,9.00
2018-01-26T10:36:23.853Z,9.00
2018-01-26T10:38:51.309Z,9.10
2018-01-26T10:41:18.766Z,9.20
2018-01-26T10:43:46.228Z,9.20
2018-01-26T10:46:14.488Z,9.20
2018-01-26T10:48:41.949Z,9.20
2018-01-26T10:51:09.457Z,9.10
2018-01-26T10:53:36.940Z,9.00
2018-01-26T10:56:04.418Z,8.90
2018-01-26T10:58:31.902Z,8.80
2018-01-26T11:00:59.361Z,8.80
2018-01-26T11:03:27.708Z,8.80
2018-01-26T11:05:55.202Z,8.80
2018-01-26T11:08:22.660Z,8.60
2018-01-26T11:10:50.124Z,8.50
2018-01-26T11:13:17.633Z,8.50
2018-01-26T11:15:45.141Z,8.50
2018-01-26T11:18:12.652Z,8.40
2018-01-26T11:20:40.882Z,8.50
2018-01-26T11:23:08.396Z,8.40
2018-01-26T11:25:35.861Z,8.50
2018-01-26T11:28:03.318Z,8.50
2018-01-26T11:30:30.802Z,8.40
2018-01-26T11:32:58.262Z,8.40
2018-01-26T11:35:25.725Z,8.40
2018-01-26T11:37:53.291Z,8.40
2018-01-26T11:40:20.761Z,8.30
2018-01-26T11:42:48.233Z,8.40
2018-01-26T11:45:15.742Z,8.40
2018-01-26T11:47:43.192Z,8.40
2018-01-26T11:50:10.709Z,8.30
2018-01-26T11:52:38.198Z,8.30
2018-01-26T11:55:05.661Z,8.30
2018-01-26T11:57:33.986Z,8.30
2018-01-26T12:00:01.454Z,8.30
2018-01-26T12:02:28.921Z,8.40
2018-01-26T12:04:56.449Z,8.50
2018-01-26T12:07:23.923Z,8.60
2018-01-26T12:09:51.406Z,8.70
2018-01-26T12:12:18.928Z,8.70
2018-01-26T12:14:46.473Z,8.80
2018-01-26T12:17:13.965Z,8.90
2018-01-26T12:19:41.427Z,9.00
2018-01-26T12:22:08.897Z,9.00
2018-01-26T12:24:36.717Z,9.20
2018-01-26T12:27:04.617Z,9.30
2018-01-26T12:29:32.507Z,9.50
2018-01-26T12:32:00.390Z,9.50
2018-01-26T12:34:28.296Z,9.50
2018-01-26T12:36:55.808Z,9.60
2018-01-26T12:39:23.258Z,9.40
2018-01-26T12:41:51.487Z,9.30
2018-01-26T12:44:19.003Z,9.30
2018-01-26T12:46:46.557Z,9.30
2018-01-26T12:49:14.064Z,9.20
2018-01-26T12:51:41.770Z,9.00
2018-01-26T12:54:10.027Z,8.80
2018-01-26T12:56:37.539Z,8.90
2018-01-26T12:59:05.094Z,8.90
2018-01-26T13:01:32.627Z,8.90
2018-01-26T13:04:00.201Z,8.90
2018-01-26T13:06:28.465Z,9.10
2018-01-26T13:08:55.980Z,9.10
2018-01-26T13:11:24.288Z,9.30
2018-01-26T13:13:51.831Z,9.30
2018-01-26T13:16:19.356Z,9.40
2018-01-26T13:18:46.964Z,9.40
2018-01-26T13:21:14.552Z,9.50
2018-01-26T13:23:42.873Z,9.40
2018-01-26T13:26:10.445Z,9.40
2018-01-26T13:28:38.661Z,9.40
2018-01-26T13:31:06.164Z,9.40
2018-01-26T13:33:33.651Z,9.30
2018-01-26T13:36:02.027Z,9.40
2018-01-26T13:38:29.625Z,9.50
2018-01-26T13:40:57.879Z,9.40
2018-01-26T13:43:25.326Z,9.40
2018-01-26T13:45:52.842Z,9.40
2018-01-26T13:48:20.297Z,9.30
2018-01-26T13:50:48.513Z,9.30
2018-01-26T13:53:16.022Z,9.30
2018-01-26T13:55:43.507Z,9.20
2018-01-26T13:58:10.965Z,9.20
2018-01-26T14:00:38.426Z,9.10
2018-01-26T14:03:06.645Z,9.10
2018-01-26T14:05:34.109Z,9.10
2018-01-26T14:08:02.114Z,9.10
2018-01-26T14:10:29.573Z,9.00
2018-01-26T14:12:57.825Z,8.90
2018-01-26T14:15:25.308Z,8.90
2018-01-26T14:17:52.772Z,8.80
2018-01-26T14:20:20.269Z,8.80
2018-01-26T14:22:47.736Z,8.70
2018-01-26T14:25:15.241Z,8.70
2018-01-26T14:27:42.719Z,8.60
2018-01-26T14:30:10.167Z,8.50
2018-01-26T14:32:37.627Z,8.50
2018-01-26T14:35:05.888Z,8.30
2018-01-26T14:37:33.380Z,8.30
2018-01-26T14:40:00.839Z,8.30
2018-01-26T14:42:28.302Z,8.30
2018-01-26T14:44:55.854Z,8.30
2018-01-26T14:47:24.106Z,8.20
2018-01-26T14:49:51.656Z,8.20
2018-01-26T14:52:19.198Z,8.20
2018-01-26T14:54:46.679Z,8.20
2018-01-26T14:57:14.158Z,8.20
2018-01-26T14:59:41.649Z,8.20
2018-01-26T15:02:09.129Z,8.20
2018-01-26T15:04:38.148Z,8.10
2018-01-26T15:07:05.646Z,8.10
2018-01-26T15:09:33.890Z,8.10
2018-01-26T15:12:01.453Z,8.00
2018-01-26T15:14:28.944Z,8.00
2018-01-26T15:16:56.436Z,8.00
2018-01-26T15:19:23.938Z,8.00
2018-01-26T15:21:51.418Z,8.00
2018-01-26T15:24:18.931Z,8.00
2018-01-26T15:26:46.541Z,8.00
2018-01-26T15:29:14.269Z,8.00
2018-01-26T15:31:41.814Z,7.90
2018-01-26T15:34:09.313Z,7.90
2018-01-26T15:36:36.816Z,7.90
2018-01-26T15:39:05.048Z,7.80
2018-01-26T15:41:32.896Z,7.80
2018-01-26T15:44:00.974Z,7.80
2018-01-26T15:46:28.845Z,7.80
2018-01-26T15:48:56.840Z,7.70
2018-01-26T15:51:24.388Z,7.80
2018-01-26T15:53:52.001Z,7.70
2018-01-26T15:56:19.554Z,7.70
2018-01-26T15:58:47.814Z,7.70
2018-01-26T16:01:15.303Z,7.60
2018-01-26T16:03:42.990Z,7.70
2018-01-26T16:06:11.535Z,7.60
2018-01-26T16:08:39.850Z,7.60
2018-01-26T16:11:08.525Z,7.50
2018-01-26T16:13:36.034Z,7.50
2018-01-26T16:16:04.336Z,7.50
2018-01-26T16:18:33.309Z,7.40
2018-01-26T16:21:03.739Z,7.40
2018-01-26T16:23:31.875Z,7.40
2018-01-26T16:25:59.395Z,7.40
2018-01-26T16:28:27.632Z,7.30
2018-01-26T16:30:55.151Z,7.30
2018-01-26T16:33:22.671Z,7.30
2018-01-26T16:35:50.941Z,7.20
2018-01-26T16:38:18.409Z,7.20
2018-01-26T16:40:45.923Z,7.20
2018-01-26T16:43:13.492Z,7.20
2018-01-26T16:45:41.058Z,7.20
2018-01-26T16:48:08.711Z,7.20
2018-01-26T16:50:36.179Z,7.20
2018-01-26T16:53:03.713Z,7.20
2018-01-26T16:55:31.835Z,7.20
2018-01-26T16:57:59.311Z,7.20
2018-01-26T17:00:26.885Z,7.20
2018-01-26T17:02:54.537Z,7.20
2018-01-26T17:05:22.789Z,7.10
2018-01-26T17:07:50.294Z,7.10
2018-01-26T17:10:17.790Z,7.10
2018-01-26T17:12:45.657Z,7.10
2018-01-26T17:15:13.189Z,7.10
2018-01-26T17:17:40.682Z,7.10
2018-01-26T17:20:08.984Z,7.10
2018-01-26T17:22:37.229Z,7.00
2018-01-26T17:25:04.692Z,7.00
2018-01-26T17:27:32.929Z,7.00
2018-01-26T17:30:00.475Z,7.00
2018-01-26T17:32:28.017Z,7.00
2018-01-26T17:34:55.641Z,6.90
2018-01-26T17:37:23.150Z,6.90
2018-01-26T17:39:50.745Z,6.90
2018-01-26T17:42:18.259Z,6.90
2018-01-26T17:44:45.817Z,6.90
2018-01-26T17:47:13.333Z,6.90
2018-01-26T17:49:40.858Z,6.90
2018-01-26T17:52:09.058Z,6.90
2018-01-26T17:54:36.524Z,6.90
2018-01-26T17:57:04.021Z,6.90
2018-01-26T17:59:32.600Z,6.90
2018-01-26T18:02:00.909Z,6.90
2018-01-26T18:04:29.191Z,6.90
2018-01-26T18:06:56.671Z,6.90
2018-01-26T18:09:24.148Z,6.90
2018-01-26T18:11:51.645Z,6.90
2018-01-26T18:14:19.885Z,7.00
2018-01-26T18:16:47.409Z,7.00
2018-01-26T18:19:14.921Z,7.00
2018-01-26T18:21:42.548Z,7.00
2018-01-26T18:24:10.070Z,7.00
2018-01-26T18:26:37.573Z,7.00
2018-01-26T18:29:05.062Z,7.00
2018-01-26T18:31:33.170Z,7.00
2018-01-26T18:34:01.914Z,6.90
2018-01-26T18:36:29.438Z,6.90
2018-01-26T18:38:56.914Z,6.90
2018-01-26T18:41:24.453Z,6.80
2018-01-26T18:43:51.976Z,6.80
2018-01-26T18:46:20.265Z,6.90
2018-01-26T18:48:47.771Z,6.80
2018-01-26T18:51:15.293Z,6.80
2018-01-26T18:53:42.822Z,6.80
2018-01-26T18:56:10.371Z,6.80
2018-01-26T18:58:37.841Z,6.80
2018-01-26T19:01:05.570Z,6.80
2018-01-26T19:03:33.097Z,6.80
2018-01-26T19:06:00.651Z,6.80
2018-01-26T19:08:28.185Z,6.80
2018-01-26T19:10:55.700Z,6.80
2018-01-26T19:13:23.973Z,6.70
2018-01-26T19:15:52.311Z,6.80
2018-01-26T19:18:19.840Z,6.80
2018-01-26T19:20:47.374Z,6.80
2018-01-26T19:23:14.949Z,6.80
2018-01-26T19:25:43.217Z,6.80
2018-01-26T19:28:10.777Z,6.70
2018-01-26T19:30:38.290Z,6.70
2018-01-26T19:33:06.576Z,6.70
2018-01-26T19:35:34.044Z,6.70
2018-01-26T19:38:02.067Z,6.70
2018-01-26T19:40:29.595Z,6.60
2018-01-26T19:42:57.970Z,6.60
2018-01-26T19:45:25.602Z,6.60
2018-01-26T19:47:53.071Z,6.60
2018-01-26T19:50:20.656Z,6.60
2018-01-26T19:52:48.974Z,6.50
2018-01-26T19:55:16.546Z,6.50
2018-01-26T19:57:44.090Z,6.50
2018-01-26T20:00:11.719Z,6.50
2018-01-26T20:02:39.249Z,6.40
2018-01-26T20:05:24.523Z,6.40
2018-01-26T20:08:01.040Z,6.40
2018-01-26T20:10:28.514Z,6.40
2018-01-26T20:13:01.802Z,6.40
2018-01-26T20:15:29.321Z,6.30
2018-01-26T20:17:56.860Z,6.30
2018-01-26T20:20:25.168Z,6.30
2018-01-26T20:22:52.650Z,6.30
2018-01-26T20:25:20.925Z,6.40
2018-01-26T20:27:49.215Z,6.40
2018-01-26T20:30:16.733Z,6.30
2018-01-26T20:32:45.061Z,6.40
2018-01-26T20:35:12.636Z,6.40
2018-01-26T20:37:40.175Z,6.30
2018-01-26T20:40:07.778Z,6.30
2018-01-26T20:42:36.043Z,6.20
2018-01-26T20:45:03.584Z,6.30
2018-01-26T20:47:31.866Z,6.30
2018-01-26T20:50:00.121Z,6.30
2018-01-26T20:52:27.660Z,6.30
2018-01-26T20:54:55.980Z,6.30
2018-01-26T20:57:23.512Z,6.30
2018-01-26T20:59:51.037Z,6.30
2018-01-26T21:02:18.584Z,6.30
2018-01-26T21:04:46.242Z,6.30
2018-01-26T21:07:13.753Z,6.30
2018-01-26T21:09:41.312Z,6.30
2018-01-26T21:12:08.824Z,6.30
2018-01-26T21:14:36.295Z,6.20
2018-01-26T21:17:03.838Z,6.30
2018-01-26T21:19:31.372Z,6.30
2018-01-26T21:22:00.416Z,6.20
2018-01-26T21:24:28.703Z,6.20
2018-01-26T21:26:56.245Z,6.20
2018-01-26T21:29:23.744Z,6.20
2018-01-26T21:31:51.368Z,6.20
2018-01-26T21:34:19.610Z,6.20
2018-01-26T21:36:47.950Z,6.20
2018-01-26T21:39:15.584Z,6.20
2018-01-26T21:41:44.000Z,6.20
2018-01-26T21:44:11.570Z,6.30
2018-01-26T21:46:39.980Z,6.30
2018-01-26T21:49:07.506Z,6.20
2018-01-26T21:51:35.212Z,6.30
2018-01-26T21:54:03.587Z,6.30
2018-01-26T21:56:31.680Z,6.30
2018-01-26T21:58:59.268Z,6.20
2018-01-26T22:01:26.816Z,6.20
2018-01-26T22:03:54.477Z,6.20
2018-01-26T22:06:27.778Z,6.20
2018-01-26T22:08:55.291Z,6.20
2018-01-26T22:11:22.791Z,6.20
2018-01-26T22:13:50.337Z,6.10
2018-01-26T22:16:17.863Z,6.10
2018-01-26T22:18:45.451Z,6.10
2018-01-26T22:21:13.010Z,6.00
2018-01-26T22:23:40.659Z,6.00
2018-01-26T22:26:08.182Z,6.00
2018-01-26T22:28:35.676Z,6.00
2018-01-26T22:31:03.938Z,6.00
2018-01-26T22:33:32.579Z,5.90
2018-01-26T22:36:00.141Z,6.00
2018-01-26T22:38:28.114Z,5.90
2018-01-26T22:40:55.636Z,5.90
2018-01-26T22:43:23.269Z,5.90
2018-01-26T22:45:50.829Z,5.90
2018-01-26T22:48:18.682Z,5.90
2018-01-26T22:50:46.200Z,5.90
2018-01-26T22:53:13.666Z,5.90
2018-01-26T22:55:41.289Z,5.80
2018-01-26T22:58:08.866Z,5.80
2018-01-26T23:00:36.437Z,5.70
2018-01-26T23:03:03.944Z,5.70
2018-01-26T23:05:32.696Z,5.70
2018-01-26T23:08:00.212Z,5.70
2018-01-26T23:10:27.831Z,5.70
2018-01-26T23:12:57.024Z,5.70
2018-01-26T23:15:24.537Z,5.70
2018-01-26T23:17:52.794Z,5.70
2018-01-26T23:20:20.943Z,5.70
2018-01-26T23:22:49.242Z,5.70
2018-01-26T23:25:16.844Z,5.70
2018-01-26T23:27:44.363Z,5.80
2018-01-26T23:30:11.935Z,5.70
2018-01-26T23:32:40.164Z,5.80
2018-01-26T23:35:07.686Z,5.70
2018-01-26T23:37:35.305Z,5.70
2018-01-26T23:40:02.974Z,5.70
2018-01-26T23:42:30.574Z,5.70
2018-01-26T23:44:58.923Z,5.70
2018-01-26T23:47:26.474Z,5.70
2018-01-26T23:49:53.999Z,5.80
2018-01-26T23:52:21.476Z,5.70
2018-01-26T23:54:48.998Z,5.80
2018-01-26T23:57:16.480Z,5.70
2018-01-26T23:59:44.075Z,5.70
